sensor_id;sensor_type;location;lat;lon;timestamp;pressure;altitude;pressure_sealevel;temperature;humidity
43683;BME280;29285;52.128;21.060;2023-02-01T00:03:53;99036.44;;;2.04;100.00
43683;BME280;29285;52.128;21.060;2023-02-01T00:08:55;99033.02;;;2.06;100.00
43683;BME280;29285;52.128;21.060;2023-02-01T00:13:57;99022.92;;;2.07;100.00
43683;BME280;29285;52.128;21.060;2023-02-01T00:19:02;99020.87;;;2.05;100.00
43683;BME280;29285;52.128;21.060;2023-02-01T00:24:04;99018.30;;;2.10;100.00
43683;BME280;29285;52.128;21.060;2023-02-01T00:29:09;99018.61;;;2.17;100.00
43683;BME280;29285;52.128;21.060;2023-02-01T00:34:13;99026.95;;;2.30;100.00
43683;BME280;29285;52.128;21.060;2023-02-01T00:39:16;99036.16;;;2.39;100.00
43683;BME280;29285;52.128;21.060;2023-02-01T00:44:18;99030.51;;;2.43;100.00
43683;BME280;29285;52.128;21.060;2023-02-01T00:49:20;99036.96;;;2.55;100.00
43683;BME280;29285;52.128;21.060;2023-02-01T00:54:22;99037.10;;;2.64;100.00
43683;BME280;29285;52.128;21.060;2023-02-01T00:59:24;99037.42;;;2.68;100.00
43683;BME280;29285;52.128;21.060;2023-02-01T01:04:26;99040.48;;;2.75;100.00
43683;BME280;29285;52.128;21.060;2023-02-01T01:09:28;99032.07;;;2.79;100.00
43683;BME280;29285;52.128;21.060;2023-02-01T01:14:29;99037.19;;;2.82;100.00
43683;BME280;29285;52.128;21.060;2023-02-01T01:19:31;99044.20;;;2.83;100.00
43683;BME280;29285;52.128;21.060;2023-02-01T01:24:33;99042.48;;;2.84;100.00
43683;BME280;29285;52.128;21.060;2023-02-01T01:29:34;99044.90;;;2.81;100.00
43683;BME280;29285;52.128;21.060;2023-02-01T01:34:36;99047.80;;;2.83;100.00
43683;BME280;29285;52.128;21.060;2023-02-01T01:39:38;99052.09;;;2.85;100.00
43683;BME280;29285;52.128;21.060;2023-02-01T01:50:02;99059.79;;;2.85;100.00
43683;BME280;29285;52.128;21.060;2023-02-01T01:55:04;99054.84;;;2.82;100.00
43683;BME280;29285;52.128;21.060;2023-02-01T02:00:13;99066.50;;;2.78;100.00
43683;BME280;29285;52.128;21.060;2023-02-01T02:05:15;99076.27;;;2.77;100.00
43683;BME280;29285;52.128;21.060;2023-02-01T02:10:17;99076.09;;;2.77;100.00
43683;BME280;29285;52.128;21.060;2023-02-01T02:15:19;99087.07;;;2.76;100.00
43683;BME280;29285;52.128;21.060;2023-02-01T02:20:35;99085.86;;;2.76;100.00
43683;BME280;29285;52.128;21.060;2023-02-01T02:36:16;99100.08;;;2.76;100.00
43683;BME280;29285;52.128;21.060;2023-02-01T02:46:41;99103.34;;;2.75;100.00
43683;BME280;29285;52.128;21.060;2023-02-01T02:52:08;99110.02;;;2.76;100.00
43683;BME280;29285;52.128;21.060;2023-02-01T02:57:30;99108.82;;;2.75;100.00
43683;BME280;29285;52.128;21.060;2023-02-01T03:02:53;99103.34;;;2.74;100.00
43683;BME280;29285;52.128;21.060;2023-02-01T03:08:24;99110.02;;;2.75;100.00
43683;BME280;29285;52.128;21.060;2023-02-01T03:23:37;99113.09;;;2.77;100.00
43683;BME280;29285;52.128;21.060;2023-02-01T03:28:43;99115.16;;;2.76;100.00
43683;BME280;29285;52.128;21.060;2023-02-01T03:33:46;99124.58;;;2.75;100.00
43683;BME280;29285;52.128;21.060;2023-02-01T03:48:54;99131.46;;;2.69;100.00
43683;BME280;29285;52.128;21.060;2023-02-01T03:53:59;99130.42;;;2.72;100.00
43683;BME280;29285;52.128;21.060;2023-02-01T03:59:02;99131.79;;;2.71;100.00
43683;BME280;29285;52.128;21.060;2023-02-01T04:04:04;99133.33;;;2.68;100.00
43683;BME280;29285;52.128;21.060;2023-02-01T04:09:05;99130.75;;;2.74;100.00
43683;BME280;29285;52.128;21.060;2023-02-01T04:14:07;99135.53;;;2.77;100.00
43683;BME280;29285;52.128;21.060;2023-02-01T04:19:09;99137.94;;;2.76;100.00
43683;BME280;29285;52.128;21.060;2023-02-01T04:24:11;99143.91;;;2.80;100.00
43683;BME280;29285;52.128;21.060;2023-02-01T04:29:13;99134.47;;;2.83;100.00
43683;BME280;29285;52.128;21.060;2023-02-01T04:34:15;99137.05;;;2.84;100.00
43683;BME280;29285;52.128;21.060;2023-02-01T04:39:17;99139.45;;;2.84;100.00
43683;BME280;29285;52.128;21.060;2023-02-01T04:44:18;99141.67;;;2.83;100.00
43683;BME280;29285;52.128;21.060;2023-02-01T04:49:20;99141.85;;;2.84;100.00
43683;BME280;29285;52.128;21.060;2023-02-01T04:54:26;99150.75;;;2.85;100.00
43683;BME280;29285;52.128;21.060;2023-02-01T04:59:28;99149.20;;;2.87;100.00
43683;BME280;29285;52.128;21.060;2023-02-01T05:04:30;99158.11;;;2.88;100.00
43683;BME280;29285;52.128;21.060;2023-02-01T05:09:32;99155.70;;;2.90;100.00
43683;BME280;29285;52.128;21.060;2023-02-01T05:14:33;99161.36;;;2.91;100.00
43683;BME280;29285;52.128;21.060;2023-02-01T05:19:35;99159.30;;;2.91;100.00
43683;BME280;29285;52.128;21.060;2023-02-01T05:24:37;99165.13;;;2.92;100.00
43683;BME280;29285;52.128;21.060;2023-02-01T05:29:39;99168.05;;;2.94;100.00
43683;BME280;29285;52.128;21.060;2023-02-01T05:34:40;99160.64;;;2.99;100.00
43683;BME280;29285;52.128;21.060;2023-02-01T05:39:42;99160.48;;;2.98;100.00
43683;BME280;29285;52.128;21.060;2023-02-01T05:44:44;99155.50;;;2.99;100.00
43683;BME280;29285;52.128;21.060;2023-02-01T05:49:45;99160.30;;;3.00;100.00
43683;BME280;29285;52.128;21.060;2023-02-01T05:54:47;99151.91;;;2.98;100.00
43683;BME280;29285;52.128;21.060;2023-02-01T05:59:49;99156.73;;;2.94;100.00
43683;BME280;29285;52.128;21.060;2023-02-01T06:04:51;99162.21;;;2.92;100.00
43683;BME280;29285;52.128;21.060;2023-02-01T06:09:53;99163.40;;;2.93;100.00
43683;BME280;29285;52.128;21.060;2023-02-01T06:14:54;99162.91;;;2.92;100.00
43683;BME280;29285;52.128;21.060;2023-02-01T06:19:56;99157.79;;;2.87;100.00
43683;BME280;29285;52.128;21.060;2023-02-01T06:24:58;99157.61;;;2.86;100.00
43683;BME280;29285;52.128;21.060;2023-02-01T06:30:00;99149.02;;;2.89;100.00
43683;BME280;29285;52.128;21.060;2023-02-01T06:35:02;99145.42;;;2.93;100.00
43683;BME280;29285;52.128;21.060;2023-02-01T06:40:04;99133.08;;;2.95;100.00
43683;BME280;29285;52.128;21.060;2023-02-01T06:45:06;99134.09;;;2.98;100.00
43683;BME280;29285;52.128;21.060;2023-02-01T06:50:08;99138.04;;;2.97;100.00
43683;BME280;29285;52.128;21.060;2023-02-01T06:55:10;99130.33;;;2.97;100.00
43683;BME280;29285;52.128;21.060;2023-02-01T07:00:12;99131.15;;;3.04;100.00
43683;BME280;29285;52.128;21.060;2023-02-01T07:05:14;99134.19;;;3.11;100.00
43683;BME280;29285;52.128;21.060;2023-02-01T07:10:16;99136.25;;;3.14;100.00
43683;BME280;29285;52.128;21.060;2023-02-01T07:15:18;99136.41;;;3.17;100.00
43683;BME280;29285;52.128;21.060;2023-02-01T07:20:20;99128.86;;;3.16;100.00
43683;BME280;29285;52.128;21.060;2023-02-01T07:25:22;99143.27;;;3.12;100.00
43683;BME280;29285;52.128;21.060;2023-02-01T07:30:24;99133.84;;;3.15;100.00
43683;BME280;29285;52.128;21.060;2023-02-01T07:35:28;99139.48;;;3.17;100.00
43683;BME280;29285;52.128;21.060;2023-02-01T07:40:29;99143.05;;;3.22;100.00
43683;BME280;29285;52.128;21.060;2023-02-01T07:45:31;99145.95;;;3.26;100.00
43683;BME280;29285;52.128;21.060;2023-02-01T07:50:33;99133.08;;;3.28;100.00
43683;BME280;29285;52.128;21.060;2023-02-01T07:55:37;99149.36;;;3.32;100.00
43683;BME280;29285;52.128;21.060;2023-02-01T08:00:39;99149.85;;;3.37;100.00
43683;BME280;29285;52.128;21.060;2023-02-01T08:05:59;99144.86;;;3.38;100.00
43683;BME280;29285;52.128;21.060;2023-02-01T08:11:02;99142.96;;;3.40;100.00
43683;BME280;29285;52.128;21.060;2023-02-01T08:16:05;99139.19;;;3.42;100.00
43683;BME280;29285;52.128;21.060;2023-02-01T08:26:11;99139.05;;;3.35;100.00
43683;BME280;29285;52.128;21.060;2023-02-01T08:31:15;99146.61;;;3.32;100.00
43683;BME280;29285;52.128;21.060;2023-02-01T08:36:17;99148.84;;;3.34;100.00
43683;BME280;29285;52.128;21.060;2023-02-01T08:41:20;99146.39;;;3.40;100.00
43683;BME280;29285;52.128;21.060;2023-02-01T08:46:22;99143.23;;;3.51;100.00
43683;BME280;29285;52.128;21.060;2023-02-01T08:51:25;99148.41;;;3.48;100.00
43683;BME280;29285;52.128;21.060;2023-02-01T08:56:27;99146.90;;;3.42;100.00
43683;BME280;29285;52.128;21.060;2023-02-01T09:01:29;99147.45;;;3.37;100.00
43683;BME280;29285;52.128;21.060;2023-02-01T09:06:30;99151.55;;;3.38;100.00
43683;BME280;29285;52.128;21.060;2023-02-01T09:11:32;99150.32;;;3.44;100.00
43683;BME280;29285;52.128;21.060;2023-02-01T09:16:34;99152.84;;;3.52;100.00
43683;BME280;29285;52.128;21.060;2023-02-01T09:21:36;99148.85;;;3.59;100.00
43683;BME280;29285;52.128;21.060;2023-02-01T09:26:38;99155.67;;;3.64;100.00
43683;BME280;29285;52.128;21.060;2023-02-01T09:31:40;99165.11;;;3.66;100.00
43683;BME280;29285;52.128;21.060;2023-02-01T09:36:42;99159.11;;;3.66;100.00
43683;BME280;29285;52.128;21.060;2023-02-01T09:41:58;99157.03;;;3.68;100.00
43683;BME280;29285;52.128;21.060;2023-02-01T09:47:01;99151.67;;;3.74;100.00
43683;BME280;29285;52.128;21.060;2023-02-01T09:52:04;99150.42;;;3.79;100.00
43683;BME280;29285;52.128;21.060;2023-02-01T09:57:23;99142.50;;;3.83;100.00
43683;BME280;29285;52.128;21.060;2023-02-01T10:02:27;99152.09;;;3.88;100.00
43683;BME280;29285;52.128;21.060;2023-02-01T10:07:46;99144.51;;;3.91;100.00
43683;BME280;29285;52.128;21.060;2023-02-01T10:23:11;99127.66;;;4.15;100.00
43683;BME280;29285;52.128;21.060;2023-02-01T10:28:22;99126.78;;;4.17;100.00
43683;BME280;29285;52.128;21.060;2023-02-01T10:33:26;99128.15;;;4.18;100.00
43683;BME280;29285;52.128;21.060;2023-02-01T10:38:31;99131.39;;;4.21;100.00
43683;BME280;29285;52.128;21.060;2023-02-01T10:43:34;99137.23;;;4.21;100.00
43683;BME280;29285;52.128;21.060;2023-02-01T10:48:37;99133.48;;;4.18;100.00
43683;BME280;29285;52.128;21.060;2023-02-01T10:54:31;99134.70;;;4.16;100.00
43683;BME280;29285;52.128;21.060;2023-02-01T10:59:05;99133.65;;;4.17;100.00
43683;BME280;29285;52.128;21.060;2023-02-01T11:04:09;99124.39;;;4.17;100.00
43683;BME280;29285;52.128;21.060;2023-02-01T11:14:17;99118.59;;;4.13;100.00
43683;BME280;29285;52.128;21.060;2023-02-01T11:19:19;99116.14;;;4.17;100.00
43683;BME280;29285;52.128;21.060;2023-02-01T11:24:35;99115.06;;;4.23;100.00
43683;BME280;29285;52.128;21.060;2023-02-01T11:29:38;99117.03;;;4.30;100.00
43683;BME280;29285;52.128;21.060;2023-02-01T11:34:49;99122.87;;;4.31;100.00
43683;BME280;29285;52.128;21.060;2023-02-01T11:39:56;99124.73;;;4.33;100.00
43683;BME280;29285;52.128;21.060;2023-02-01T11:50:19;99116.07;;;4.41;100.00
43683;BME280;29285;52.128;21.060;2023-02-01T12:10:48;99096.93;;;4.79;100.00
43683;BME280;29285;52.128;21.060;2023-02-01T12:31:24;99084.23;;;4.62;100.00
43683;BME280;29285;52.128;21.060;2023-02-01T12:36:51;99088.31;;;4.52;100.00
43683;BME280;29285;52.128;21.060;2023-02-01T12:52:53;99088.43;;;4.41;100.00
43683;BME280;29285;52.128;21.060;2023-02-01T12:57:49;99091.52;;;4.43;100.00
43683;BME280;29285;52.128;21.060;2023-02-01T13:08:14;99088.34;;;4.49;100.00
43683;BME280;29285;52.128;21.060;2023-02-01T13:18:20;99095.02;;;5.21;100.00
43683;BME280;29285;52.128;21.060;2023-02-01T13:23:27;99096.62;;;5.18;100.00
43683;BME280;29285;52.128;21.060;2023-02-01T13:28:50;99094.58;;;5.03;100.00
43683;BME280;29285;52.128;21.060;2023-02-01T13:44:16;99105.95;;;4.71;100.00
43683;BME280;29285;52.128;21.060;2023-02-01T13:49:23;99110.52;;;4.63;100.00
43683;BME280;29285;52.128;21.060;2023-02-01T14:04:47;99112.80;;;4.43;100.00
43683;BME280;29285;52.128;21.060;2023-02-01T14:28:28;99097.81;;;4.31;100.00
43683;BME280;29285;52.128;21.060;2023-02-01T14:33:30;99092.80;;;4.32;100.00
43683;BME280;29285;52.128;21.060;2023-02-01T14:38:32;99095.84;;;4.38;100.00
43683;BME280;29285;52.128;21.060;2023-02-01T14:44:13;99100.46;;;4.39;100.00
43683;BME280;29285;52.128;21.060;2023-02-01T14:49:12;99103.66;;;4.29;100.00
43683;BME280;29285;52.128;21.060;2023-02-01T14:54:14;99102.15;;;4.25;100.00
43683;BME280;29285;52.128;21.060;2023-02-01T14:59:16;99105.73;;;4.28;100.00
43683;BME280;29285;52.128;21.060;2023-02-01T15:04:24;99110.34;;;4.32;100.00
43683;BME280;29285;52.128;21.060;2023-02-01T15:09:27;99108.11;;;4.31;100.00
43683;BME280;29285;52.128;21.060;2023-02-01T15:14:31;99110.50;;;4.33;100.00
43683;BME280;29285;52.128;21.060;2023-02-01T15:19:33;99107.74;;;4.33;100.00
43683;BME280;29285;52.128;21.060;2023-02-01T15:24:35;99112.23;;;4.32;100.00
43683;BME280;29285;52.128;21.060;2023-02-01T15:29:36;99115.88;;;4.28;100.00
43683;BME280;29285;52.128;21.060;2023-02-01T15:34:45;99118.83;;;4.24;100.00
43683;BME280;29285;52.128;21.060;2023-02-01T15:40:05;99123.68;;;4.18;100.00
43683;BME280;29285;52.128;21.060;2023-02-01T15:45:16;99123.31;;;4.21;100.00
43683;BME280;29285;52.128;21.060;2023-02-01T15:50:18;99123.66;;;4.20;100.00
43683;BME280;29285;52.128;21.060;2023-02-01T16:00:28;99119.71;;;4.21;100.00
43683;BME280;29285;52.128;21.060;2023-02-01T16:05:35;99131.94;;;4.18;100.00
43683;BME280;29285;52.128;21.060;2023-02-01T16:10:39;99131.98;;;4.12;100.00
43683;BME280;29285;52.128;21.060;2023-02-01T16:15:42;99128.27;;;4.04;100.00
43683;BME280;29285;52.128;21.060;2023-02-01T16:20:45;99125.92;;;3.98;100.00
43683;BME280;29285;52.128;21.060;2023-02-01T16:25:48;99123.19;;;3.95;100.00
43683;BME280;29285;52.128;21.060;2023-02-01T16:30:50;99120.92;;;3.98;100.00
43683;BME280;29285;52.128;21.060;2023-02-01T16:35:54;99118.88;;;3.97;100.00
43683;BME280;29285;52.128;21.060;2023-02-01T16:40:58;99118.55;;;3.98;100.00
43683;BME280;29285;52.128;21.060;2023-02-01T16:46:01;99121.63;;;3.98;100.00
43683;BME280;29285;52.128;21.060;2023-02-01T16:51:07;99127.32;;;3.94;100.00
43683;BME280;29285;52.128;21.060;2023-02-01T16:56:20;99124.96;;;3.89;100.00
43683;BME280;29285;52.128;21.060;2023-02-01T17:01:22;99112.77;;;3.90;100.00
43683;BME280;29285;52.128;21.060;2023-02-01T17:06:25;99116.91;;;3.87;100.00
43683;BME280;29285;52.128;21.060;2023-02-01T17:11:28;99109.39;;;3.82;100.00
43683;BME280;29285;52.128;21.060;2023-02-01T17:16:33;99113.88;;;3.81;100.00
43683;BME280;29285;52.128;21.060;2023-02-01T17:21:38;99111.17;;;3.96;100.00
43683;BME280;29285;52.128;21.060;2023-02-01T17:26:41;99111.38;;;4.48;100.00
43683;BME280;29285;52.128;21.060;2023-02-01T17:31:45;99118.22;;;4.81;100.00
43683;BME280;29285;52.128;21.060;2023-02-01T17:36:47;99116.27;;;5.14;100.00
43683;BME280;29285;52.128;21.060;2023-02-01T17:41:49;99122.62;;;5.28;100.00
43683;BME280;29285;52.128;21.060;2023-02-01T17:46:50;99122.71;;;5.58;100.00
43683;BME280;29285;52.128;21.060;2023-02-01T17:51:52;99116.33;;;5.82;100.00
43683;BME280;29285;52.128;21.060;2023-02-01T17:56:54;99120.83;;;5.80;100.00
43683;BME280;29285;52.128;21.060;2023-02-01T18:01:56;99120.10;;;5.71;100.00
43683;BME280;29285;52.128;21.060;2023-02-01T18:07:01;99121.94;;;5.63;100.00
43683;BME280;29285;52.128;21.060;2023-02-01T18:12:03;99118.21;;;5.47;100.00
43683;BME280;29285;52.128;21.060;2023-02-01T18:17:05;99125.84;;;4.90;100.00
43683;BME280;29285;52.128;21.060;2023-02-01T18:22:16;99124.15;;;4.58;100.00
43683;BME280;29285;52.128;21.060;2023-02-01T18:27:19;99130.21;;;4.36;100.00
43683;BME280;29285;52.128;21.060;2023-02-01T18:32:21;99135.20;;;4.17;100.00
43683;BME280;29285;52.128;21.060;2023-02-01T18:37:22;99132.27;;;3.96;100.00
43683;BME280;29285;52.128;21.060;2023-02-01T18:42:24;99130.80;;;3.88;100.00
43683;BME280;29285;52.128;21.060;2023-02-01T18:47:26;99130.64;;;3.87;100.00
43683;BME280;29285;52.128;21.060;2023-02-01T18:52:28;99129.13;;;3.82;100.00
43683;BME280;29285;52.128;21.060;2023-02-01T18:57:29;99129.83;;;3.81;100.00
43683;BME280;29285;52.128;21.060;2023-02-01T19:02:31;99125.42;;;3.74;100.00
43683;BME280;29285;52.128;21.060;2023-02-01T19:07:33;99120.10;;;3.74;100.00
43683;BME280;29285;52.128;21.060;2023-02-01T19:12:35;99123.36;;;3.73;100.00
43683;BME280;29285;52.128;21.060;2023-02-01T19:17:39;99115.98;;;3.73;100.00
43683;BME280;29285;52.128;21.060;2023-02-01T19:22:41;99115.67;;;3.71;100.00
43683;BME280;29285;52.128;21.060;2023-02-01T19:27:43;99111.19;;;3.72;100.00
43683;BME280;29285;52.128;21.060;2023-02-01T19:32:45;99118.92;;;3.72;100.00
43683;BME280;29285;52.128;21.060;2023-02-01T19:37:47;99118.30;;;3.62;100.00
43683;BME280;29285;52.128;21.060;2023-02-01T19:42:49;99117.61;;;3.63;100.00
43683;BME280;29285;52.128;21.060;2023-02-01T19:47:51;99110.23;;;3.64;100.00
43683;BME280;29285;52.128;21.060;2023-02-01T19:52:52;99112.77;;;3.68;100.00
43683;BME280;29285;52.128;21.060;2023-02-01T19:57:54;99123.92;;;3.67;100.00
43683;BME280;29285;52.128;21.060;2023-02-01T20:02:56;99124.28;;;3.65;100.00
43683;BME280;29285;52.128;21.060;2023-02-01T20:07:59;99122.25;;;3.62;100.00
43683;BME280;29285;52.128;21.060;2023-02-01T20:13:02;99111.95;;;3.62;100.00
43683;BME280;29285;52.128;21.060;2023-02-01T20:18:03;99111.98;;;3.59;100.00
43683;BME280;29285;52.128;21.060;2023-02-01T20:23:05;99110.93;;;3.61;100.00
43683;BME280;29285;52.128;21.060;2023-02-01T20:28:07;99106.81;;;3.60;100.00
43683;BME280;29285;52.128;21.060;2023-02-01T20:33:09;99102.36;;;3.61;100.00
43683;BME280;29285;52.128;21.060;2023-02-01T20:38:10;99098.95;;;3.58;100.00
43683;BME280;29285;52.128;21.060;2023-02-01T20:43:12;99097.55;;;3.60;100.00
43683;BME280;29285;52.128;21.060;2023-02-01T20:48:14;99092.91;;;3.61;100.00
43683;BME280;29285;52.128;21.060;2023-02-01T20:53:16;99099.58;;;3.65;100.00
43683;BME280;29285;52.128;21.060;2023-02-01T20:58:17;99099.91;;;3.66;100.00
43683;BME280;29285;52.128;21.060;2023-02-01T21:03:19;99102.30;;;3.69;100.00
43683;BME280;29285;52.128;21.060;2023-02-01T21:08:21;99096.33;;;3.63;100.00
43683;BME280;29285;52.128;21.060;2023-02-01T21:13:24;99099.09;;;3.62;100.00
43683;BME280;29285;52.128;21.060;2023-02-01T21:18:26;99096.17;;;3.62;100.00
43683;BME280;29285;52.128;21.060;2023-02-01T21:23:28;99093.76;;;3.64;100.00
43683;BME280;29285;52.128;21.060;2023-02-01T21:28:31;99092.86;;;3.71;100.00
43683;BME280;29285;52.128;21.060;2023-02-01T21:33:33;99103.08;;;3.79;100.00
43683;BME280;29285;52.128;21.060;2023-02-01T21:38:39;99103.88;;;3.86;100.00
43683;BME280;29285;52.128;21.060;2023-02-01T21:43:41;99104.23;;;3.84;100.00
43683;BME280;29285;52.128;21.060;2023-02-01T21:48:42;99106.48;;;3.82;100.00
43683;BME280;29285;52.128;21.060;2023-02-01T21:53:44;99099.28;;;3.82;100.00
43683;BME280;29285;52.128;21.060;2023-02-01T21:58:45;99093.95;;;3.83;100.00
43683;BME280;29285;52.128;21.060;2023-02-01T22:03:47;99088.84;;;3.79;100.00
43683;BME280;29285;52.128;21.060;2023-02-01T22:08:49;99088.56;;;3.72;100.00
43683;BME280;29285;52.128;21.060;2023-02-01T22:13:51;99091.17;;;3.65;100.00
43683;BME280;29285;52.128;21.060;2023-02-01T22:18:52;99086.45;;;3.54;100.00
43683;BME280;29285;52.128;21.060;2023-02-01T22:23:54;99089.27;;;3.44;100.00
43683;BME280;29285;52.128;21.060;2023-02-01T22:28:57;99080.76;;;3.34;100.00
43683;BME280;29285;52.128;21.060;2023-02-01T22:33:59;99086.77;;;3.32;100.00
43683;BME280;29285;52.128;21.060;2023-02-01T22:39:01;99086.28;;;3.30;100.00
43683;BME280;29285;52.128;21.060;2023-02-01T22:44:03;99085.09;;;3.28;100.00
43683;BME280;29285;52.128;21.060;2023-02-01T22:49:04;99079.25;;;3.30;100.00
43683;BME280;29285;52.128;21.060;2023-02-01T22:54:08;99078.40;;;3.28;100.00
43683;BME280;29285;52.128;21.060;2023-02-01T22:59:15;99084.77;;;3.25;100.00
43683;BME280;29285;52.128;21.060;2023-02-01T23:04:16;99080.69;;;3.16;100.00
43683;BME280;29285;52.128;21.060;2023-02-01T23:09:19;99073.44;;;2.99;100.00
43683;BME280;29285;52.128;21.060;2023-02-01T23:14:21;99067.50;;;2.84;100.00
43683;BME280;29285;52.128;21.060;2023-02-01T23:19:23;99063.76;;;2.78;100.00
43683;BME280;29285;52.128;21.060;2023-02-01T23:24:25;99061.93;;;2.68;100.00
43683;BME280;29285;52.128;21.060;2023-02-01T23:29:27;99068.98;;;2.58;100.00
43683;BME280;29285;52.128;21.060;2023-02-01T23:34:28;99068.13;;;2.60;100.00
43683;BME280;29285;52.128;21.060;2023-02-01T23:39:30;99070.34;;;2.61;100.00
43683;BME280;29285;52.128;21.060;2023-02-01T23:44:33;99073.47;;;2.50;100.00
43683;BME280;29285;52.128;21.060;2023-02-01T23:49:35;99072.64;;;2.39;100.00
43683;BME280;29285;52.128;21.060;2023-02-01T23:54:37;99065.63;;;2.33;100.00
43683;BME280;29285;52.128;21.060;2023-02-01T23:59:38;99061.71;;;2.29;100.00
